Eastham, Massachusetts
Current Conditions -  °F | °C
As of 12:52 AM on Saturday 20 Dec 2014 (Local Time) from KCQX Reporting Station
Overcast Overcast  
Wind Chill: 31°   Ceiling: 2600
Heat Index: 35°   Visibility: 10mi
Dew Point: 27°   Wind: 5mph
Humidity: 72%   Direction: NA
Pressure: 30.12"   Gusts: NA
Location:  41.83°N, 69.97°W
Report Text: KCQX 200552Z AUTO VRB04KT 10SM OVC026 02/M03 A3012 RMK AO2 SLP203 T00171028 10028 20017 53009
Loading
Personal Weather Stations






























Interactive Weather Map New forecast layout! Learn more

10-Day Weather Forecast

Advertisements
Track Severe Weather on mobile